createdAt,value
2022-07-29T19:07:03.765Z,99554.00
2022-07-29T19:09:32.683Z,99561.25
2022-07-29T19:12:03.749Z,99546.41
2022-07-29T19:14:42.706Z,99554.69
2022-07-29T19:17:11.560Z,99553.63
2022-07-29T19:19:45.933Z,99551.34
2022-07-29T19:22:17.090Z,99539.56
2022-07-29T19:24:46.798Z,99543.84
2022-07-29T19:27:26.354Z,99544.78
2022-07-29T19:29:58.778Z,99553.34
2022-07-29T19:32:39.200Z,99540.34
2022-07-29T19:35:31.446Z,99558.81
2022-07-29T19:38:02.161Z,99554.56
2022-07-29T19:40:31.042Z,99548.56
2022-07-29T19:43:01.057Z,99562.53
2022-07-29T19:45:30.724Z,99552.06
2022-07-29T19:48:01.674Z,99560.56
2022-07-29T19:50:31.042Z,99559.03
2022-07-29T19:53:00.857Z,99558.31
2022-07-29T19:55:29.822Z,99546.78
2022-07-29T19:57:59.616Z,99554.63
2022-07-29T20:00:29.289Z,99553.38
2022-07-29T20:02:59.996Z,99557.91
2022-07-29T20:05:29.010Z,99557.69
2022-07-29T20:07:58.149Z,99561.72
2022-07-29T20:10:27.100Z,99565.88
2022-07-29T20:12:56.123Z,99570.50
2022-07-29T20:15:25.026Z,99556.91
2022-07-29T20:17:57.212Z,99555.59
2022-07-29T20:20:27.299Z,99560.75
2022-07-29T20:22:56.802Z,99551.59
2022-07-29T20:25:26.134Z,99556.63
2022-07-29T20:27:54.933Z,99559.00
2022-07-29T20:30:33.551Z,99547.03
2022-07-29T20:33:02.511Z,99555.47
2022-07-29T20:35:32.328Z,99549.25
2022-07-29T20:38:01.464Z,99544.38
2022-07-29T20:40:30.416Z,99551.28
2022-07-29T20:42:59.416Z,99549.25
2022-07-29T20:45:28.237Z,99546.84
2022-07-29T20:47:57.045Z,99547.81
2022-07-29T20:50:25.927Z,99555.53
2022-07-29T20:52:54.759Z,99548.28
2022-07-29T20:55:23.753Z,99550.47
2022-07-29T20:57:52.556Z,99548.06
2022-07-29T21:00:21.409Z,99542.75
2022-07-29T21:03:01.115Z,99554.81
2022-07-29T21:05:30.324Z,99540.09
2022-07-29T21:08:04.052Z,99539.47
2022-07-29T21:10:32.883Z,99540.22
2022-07-29T21:13:10.438Z,99543.59
2022-07-29T21:15:42.696Z,99533.91
2022-07-29T21:18:27.399Z,99551.97
2022-07-29T21:21:01.824Z,99548.19
2022-07-29T21:23:31.745Z,99538.91
2022-07-29T21:26:00.576Z,99545.41
2022-07-29T21:28:41.803Z,99548.06
2022-07-29T21:31:17.178Z,99537.28
2022-07-29T21:33:56.161Z,99537.13
2022-07-29T21:39:13.764Z,99541.78
2022-07-29T21:41:42.657Z,99549.81
2022-07-29T21:44:11.508Z,99530.59
2022-07-29T21:46:40.379Z,99540.78
2022-07-29T21:49:09.293Z,99528.19
2022-07-29T21:51:38.208Z,99518.44
2022-07-29T21:54:17.096Z,99521.38
2022-07-29T21:56:51.411Z,99520.25
2022-07-29T21:59:30.869Z,99520.06
2022-07-29T22:02:02.827Z,99523.19
2022-07-29T22:04:32.674Z,99521.34
2022-07-29T22:07:11.511Z,99524.81
2022-07-29T22:09:40.563Z,99516.84
2022-07-29T22:12:09.809Z,99518.97
2022-07-29T22:14:48.684Z,99530.63
2022-07-29T22:17:20.215Z,99517.03
2022-07-29T22:19:49.049Z,99525.25
2022-07-29T22:22:17.955Z,99530.72
2022-07-29T22:24:47.150Z,99530.97
2022-07-29T22:27:15.980Z,99528.94
2022-07-29T22:29:44.843Z,99537.59
2022-07-29T22:32:18.104Z,99530.88
2022-07-29T22:34:56.165Z,99529.81
2022-07-29T22:37:25.107Z,99546.47
2022-07-29T22:39:53.910Z,99531.97
2022-07-29T22:42:22.757Z,99538.47
2022-07-29T22:44:51.600Z,99532.72
2022-07-29T22:47:45.984Z,99536.78
2022-07-29T22:50:09.406Z,99542.75
2022-07-29T22:52:43.777Z,99548.75
2022-07-29T22:55:23.050Z,99537.53
2022-07-29T22:57:51.876Z,99543.31
2022-07-29T23:00:25.464Z,99552.75
2022-07-29T23:02:54.266Z,99554.59
2022-07-29T23:05:28.276Z,99549.97
2022-07-29T23:08:07.341Z,99551.28
2022-07-29T23:10:36.194Z,99549.44
2022-07-29T23:13:05.108Z,99549.97
2022-07-29T23:15:33.951Z,99559.03
2022-07-29T23:18:07.905Z,99550.50
2022-07-29T23:20:36.859Z,99556.09
2022-07-29T23:23:06.123Z,99553.13
2022-07-29T23:25:35.130Z,99544.38
2022-07-29T23:28:04.214Z,99545.28
2022-07-29T23:30:33.145Z,99550.72
2022-07-29T23:33:02.060Z,99544.88
2022-07-29T23:35:30.960Z,99540.47
2022-07-29T23:37:59.863Z,99540.94
2022-07-29T23:40:38.233Z,99550.97
2022-07-29T23:43:10.569Z,99541.59
2022-07-29T23:45:44.975Z,99538.44
2022-07-29T23:48:22.694Z,99539.75
2022-07-29T23:50:51.485Z,99543.56
2022-07-29T23:53:20.390Z,99537.44
2022-07-29T23:55:49.499Z,99542.13
2022-07-29T23:58:18.322Z,99547.22
